createdAt,value
2023-11-22T00:02:18.732Z,13.25
2023-11-22T00:04:45.502Z,18.73
2023-11-22T00:07:12.220Z,19.30
2023-11-22T00:09:38.896Z,18.02
2023-11-22T00:12:06.070Z,16.42
2023-11-22T00:14:32.677Z,14.80
2023-11-22T00:16:59.762Z,17.92
2023-11-22T00:19:26.405Z,18.65
2023-11-22T00:21:52.894Z,17.38
2023-11-22T00:24:19.683Z,17.35
2023-11-22T00:26:46.804Z,17.45
2023-11-22T00:29:13.359Z,16.85
2023-11-22T00:31:41.419Z,15.45
2023-11-22T00:34:07.886Z,16.20
2023-11-22T00:36:35.252Z,17.25
2023-11-22T00:39:02.009Z,18.30
2023-11-22T00:41:36.681Z,23.02
2023-11-22T00:44:04.756Z,18.33
2023-11-22T00:46:31.349Z,18.20
2023-11-22T00:48:58.099Z,18.45
2023-11-22T00:51:25.109Z,18.13
2023-11-22T00:53:52.160Z,19.65
2023-11-22T00:56:18.757Z,16.42
2023-11-22T00:58:45.247Z,16.67
2023-11-22T01:01:12.716Z,18.40
2023-11-22T01:03:39.351Z,20.08
2023-11-22T01:06:07.581Z,16.98
2023-11-22T01:08:34.110Z,17.52
2023-11-22T01:11:01.065Z,18.60
2023-11-22T01:13:27.663Z,19.67
2023-11-22T01:15:55.811Z,20.10
2023-11-22T01:18:22.631Z,18.48
2023-11-22T01:20:49.165Z,18.15
2023-11-22T01:23:15.764Z,19.50
2023-11-22T01:25:42.354Z,19.08
2023-11-22T01:28:08.812Z,19.38
2023-11-22T01:30:35.315Z,21.80
2023-11-22T01:33:01.786Z,19.15
2023-11-22T01:35:28.534Z,20.13
2023-11-22T01:37:55.200Z,18.42
2023-11-22T01:40:21.672Z,18.30
2023-11-22T01:42:48.491Z,17.88
2023-11-22T01:45:15.400Z,21.00
2023-11-22T01:47:42.321Z,18.02
2023-11-22T01:50:09.850Z,17.75
2023-11-22T01:52:36.647Z,20.00
2023-11-22T01:55:05.985Z,19.75
2023-11-22T01:57:35.313Z,18.10
2023-11-22T02:00:04.893Z,15.80
2023-11-22T02:02:32.816Z,16.73
2023-11-22T02:04:59.728Z,14.65
2023-11-22T02:07:28.604Z,15.57
2023-11-22T02:09:55.297Z,16.60
2023-11-22T02:12:21.843Z,18.08
2023-11-22T02:14:48.933Z,16.33
2023-11-22T02:17:15.616Z,15.07
2023-11-22T02:19:42.149Z,16.30
2023-11-22T02:22:08.679Z,16.55
2023-11-22T02:24:35.561Z,18.45
2023-11-22T02:27:02.108Z,19.38
2023-11-22T02:29:29.372Z,16.92
2023-11-22T02:31:55.970Z,16.27
2023-11-22T02:34:22.505Z,17.95
2023-11-22T02:36:57.767Z,16.77
2023-11-22T02:39:42.285Z,17.83
2023-11-22T02:42:09.955Z,22.52
2023-11-22T02:44:36.477Z,18.70
2023-11-22T02:47:03.192Z,20.08
2023-11-22T02:49:30.705Z,16.48
2023-11-22T02:51:57.200Z,22.02
2023-11-22T02:54:23.680Z,16.70
2023-11-22T02:56:50.332Z,20.10
2023-11-22T02:59:17.419Z,19.48
2023-11-22T03:01:44.134Z,19.58
2023-11-22T03:04:10.892Z,20.40
2023-11-22T03:06:37.452Z,18.08
2023-11-22T03:09:05.564Z,18.90
2023-11-22T03:11:32.952Z,18.60
2023-11-22T03:14:00.198Z,18.23
2023-11-22T03:16:26.842Z,18.77
2023-11-22T03:18:53.413Z,19.13
2023-11-22T03:21:19.923Z,18.80
2023-11-22T03:23:46.430Z,15.85
2023-11-22T03:26:13.084Z,15.50
2023-11-22T03:28:39.679Z,21.50
2023-11-22T03:31:09.042Z,18.63
2023-11-22T03:33:35.617Z,18.75
2023-11-22T03:36:03.287Z,18.70
2023-11-22T03:38:29.875Z,18.65
2023-11-22T03:40:56.410Z,16.25
2023-11-22T03:43:23.022Z,17.42
2023-11-22T03:45:49.521Z,18.58
2023-11-22T03:48:16.241Z,21.98
2023-11-22T03:50:42.922Z,17.50
2023-11-22T03:53:09.503Z,18.63
2023-11-22T03:55:36.011Z,17.80
2023-11-22T03:58:02.537Z,14.45
2023-11-22T04:00:29.093Z,16.67
2023-11-22T04:02:57.852Z,17.50
2023-11-22T04:05:24.428Z,19.90
2023-11-22T04:07:52.729Z,18.52
2023-11-22T04:10:20.332Z,18.38
2023-11-22T04:12:47.118Z,18.67
2023-11-22T04:15:13.909Z,19.38
2023-11-22T04:17:41.986Z,19.08
2023-11-22T04:20:10.767Z,19.13
2023-11-22T04:22:38.316Z,16.40
2023-11-22T04:25:05.615Z,18.02
2023-11-22T04:27:32.283Z,13.18
2023-11-22T04:29:58.808Z,19.13
2023-11-22T04:32:25.379Z,17.42
2023-11-22T04:34:52.015Z,15.05
2023-11-22T04:37:19.766Z,15.75
2023-11-22T04:39:46.417Z,18.13
2023-11-22T04:42:12.954Z,17.00
2023-11-22T04:44:39.466Z,15.63
2023-11-22T04:47:07.484Z,16.38
2023-11-22T04:49:34.127Z,17.30
2023-11-22T04:52:00.669Z,17.40
2023-11-22T04:54:27.190Z,18.83
2023-11-22T04:56:53.678Z,16.85
2023-11-22T04:59:20.269Z,15.88
2023-11-22T05:01:46.840Z,19.13
2023-11-22T05:04:13.366Z,15.50
2023-11-22T05:06:39.960Z,20.40
2023-11-22T05:09:06.942Z,17.27
2023-11-22T05:11:33.649Z,17.92
2023-11-22T05:14:00.217Z,20.90
2023-11-22T05:16:26.797Z,17.98
2023-11-22T05:18:53.328Z,18.42
2023-11-22T05:21:19.901Z,20.10
2023-11-22T05:23:46.848Z,17.55
2023-11-22T05:26:13.734Z,18.70
2023-11-22T05:28:40.310Z,17.90
2023-11-22T05:31:06.844Z,17.17
2023-11-22T05:33:33.588Z,17.80
2023-11-22T05:36:00.279Z,16.85
2023-11-22T05:38:28.066Z,17.20
2023-11-22T05:40:54.645Z,18.30
2023-11-22T05:43:26.551Z,17.15
2023-11-22T05:45:54.181Z,14.20
2023-11-22T05:48:20.850Z,19.77
2023-11-22T05:50:48.274Z,19.15
2023-11-22T05:53:20.362Z,17.42
2023-11-22T05:55:50.610Z,20.15
2023-11-22T05:58:18.259Z,18.83
2023-11-22T06:00:48.164Z,19.92
2023-11-22T06:03:15.350Z,16.48
2023-11-22T06:05:42.118Z,18.98
2023-11-22T06:08:10.501Z,17.27
2023-11-22T06:10:37.189Z,22.20
2023-11-22T06:13:03.728Z,22.35
2023-11-22T06:15:31.867Z,22.02
2023-11-22T06:17:59.396Z,18.40
2023-11-22T06:20:28.158Z,20.20
2023-11-22T06:22:54.758Z,21.52
2023-11-22T06:25:21.309Z,17.63
2023-11-22T06:27:47.788Z,18.83
2023-11-22T06:30:15.602Z,15.40
2023-11-22T06:32:43.673Z,20.17
2023-11-22T06:35:12.574Z,20.73
2023-11-22T06:37:39.129Z,20.02
2023-11-22T06:40:06.399Z,18.92
2023-11-22T06:42:34.512Z,20.35
2023-11-22T06:45:02.019Z,21.75
2023-11-22T06:47:28.762Z,20.90
2023-11-22T06:49:55.416Z,20.33
2023-11-22T06:52:21.906Z,19.98
2023-11-22T06:54:48.408Z,17.75
2023-11-22T06:57:14.982Z,21.33
2023-11-22T06:59:42.196Z,19.38
2023-11-22T07:02:08.902Z,21.92
2023-11-22T07:04:35.723Z,22.65
2023-11-22T07:07:03.402Z,21.85
2023-11-22T07:09:30.571Z,21.38
2023-11-22T07:11:58.857Z,18.63
2023-11-22T07:14:26.219Z,18.13
2023-11-22T07:16:54.941Z,21.38
2023-11-22T07:19:21.712Z,20.50
2023-11-22T07:21:49.641Z,19.45
2023-11-22T07:24:16.921Z,19.75
2023-11-22T07:26:43.559Z,18.42
2023-11-22T07:29:10.709Z,20.20
2023-11-22T07:31:37.201Z,20.35
2023-11-22T07:34:03.885Z,22.00
2023-11-22T07:36:31.818Z,19.45
2023-11-22T07:38:58.504Z,19.25
2023-11-22T07:41:25.137Z,21.70
2023-11-22T07:43:51.662Z,18.55
2023-11-22T07:46:20.279Z,21.25
2023-11-22T07:48:48.628Z,21.50
2023-11-22T07:51:18.398Z,23.50
2023-11-22T07:53:45.061Z,20.58
2023-11-22T07:56:12.742Z,21.63
2023-11-22T07:58:39.482Z,19.00
2023-11-22T08:01:06.276Z,19.08
2023-11-22T08:03:33.332Z,22.20
2023-11-22T08:06:00.963Z,20.40
2023-11-22T08:08:27.541Z,19.90
2023-11-22T08:10:54.553Z,18.73
2023-11-22T08:13:23.844Z,24.45
2023-11-22T08:15:50.647Z,25.40
2023-11-22T08:18:17.692Z,20.60
2023-11-22T08:20:44.979Z,20.10
2023-11-22T08:23:13.009Z,24.90
2023-11-22T08:25:42.166Z,27.13
2023-11-22T08:28:09.424Z,20.05
2023-11-22T08:30:38.795Z,23.90
2023-11-22T08:33:05.511Z,20.58
2023-11-22T08:35:32.252Z,19.70
2023-11-22T08:37:59.714Z,21.88
2023-11-22T08:40:26.952Z,19.35
2023-11-22T08:42:53.964Z,21.17
2023-11-22T08:45:20.664Z,22.58
2023-11-22T08:47:47.436Z,22.58
2023-11-22T08:50:14.351Z,19.75
2023-11-22T08:52:42.976Z,19.25
2023-11-22T08:55:09.842Z,22.00
2023-11-22T08:57:38.285Z,20.55
2023-11-22T09:00:10.123Z,18.67
2023-11-22T09:02:37.421Z,18.65
2023-11-22T09:05:07.910Z,21.58
2023-11-22T09:07:36.357Z,18.58
2023-11-22T09:10:10.991Z,17.45
2023-11-22T09:12:40.602Z,17.38
2023-11-22T09:15:27.107Z,18.63
2023-11-22T09:17:54.985Z,20.17
2023-11-22T09:20:22.403Z,21.20
2023-11-22T09:22:51.237Z,19.15
2023-11-22T09:25:20.429Z,17.85
2023-11-22T09:27:49.392Z,19.17
2023-11-22T09:30:37.518Z,16.63
2023-11-22T09:33:06.797Z,18.77
2023-11-22T09:35:34.467Z,21.48
2023-11-22T09:38:01.900Z,16.95
2023-11-22T09:40:30.099Z,17.20
2023-11-22T09:42:58.938Z,15.57
2023-11-22T09:45:26.778Z,14.88
2023-11-22T09:47:54.288Z,17.65
2023-11-22T09:50:30.879Z,18.67
2023-11-22T09:53:01.672Z,17.60
2023-11-22T09:55:29.785Z,17.63
2023-11-22T09:58:01.244Z,17.95
2023-11-22T10:00:31.274Z,19.00
2023-11-22T10:05:29.562Z,12.68
2023-11-22T10:07:57.006Z,15.93
2023-11-22T10:10:24.170Z,17.08
2023-11-22T10:12:50.705Z,15.80
2023-11-22T10:15:20.137Z,16.13
2023-11-22T10:17:57.927Z,15.20
2023-11-22T10:20:27.277Z,17.70
2023-11-22T10:22:55.002Z,16.77
2023-11-22T10:25:24.130Z,14.07
2023-11-22T10:27:52.446Z,13.63
2023-11-22T10:30:19.946Z,14.77
2023-11-22T10:32:47.150Z,13.20
2023-11-22T10:35:16.866Z,16.08
2023-11-22T10:37:46.823Z,14.55
2023-11-22T10:40:14.450Z,15.70
2023-11-22T10:42:47.018Z,10.65
2023-11-22T10:45:14.843Z,12.23
2023-11-22T10:47:43.625Z,11.30
2023-11-22T10:50:13.388Z,12.20
2023-11-22T10:52:43.742Z,12.65
2023-11-22T10:55:13.314Z,11.05
2023-11-22T10:57:49.169Z,12.55
2023-11-22T11:00:17.013Z,12.15
2023-11-22T11:02:50.205Z,11.10
2023-11-22T11:05:21.596Z,10.50
2023-11-22T11:08:12.007Z,11.48
2023-11-22T11:10:42.722Z,14.82
2023-11-22T11:13:14.300Z,9.93
2023-11-22T11:15:44.259Z,8.63
2023-11-22T11:18:14.479Z,10.50
2023-11-22T11:20:56.906Z,8.40
2023-11-22T11:23:27.502Z,9.45
2023-11-22T11:25:55.891Z,9.43
2023-11-22T11:28:26.811Z,9.15
2023-11-22T11:30:54.616Z,10.52
2023-11-22T11:33:33.880Z,5.75
2023-11-22T11:36:04.802Z,8.77
2023-11-22T11:38:34.401Z,9.85
2023-11-22T11:41:14.301Z,6.65
2023-11-22T11:43:43.555Z,7.47
2023-11-22T11:46:11.079Z,6.75
2023-11-22T11:48:38.204Z,8.60
2023-11-22T11:51:05.080Z,6.95
2023-11-22T11:53:32.567Z,7.95
2023-11-22T11:55:59.538Z,8.02
2023-11-22T11:58:26.079Z,7.78
2023-11-22T12:00:53.713Z,8.48
2023-11-22T12:03:22.887Z,8.82
2023-11-22T12:05:52.735Z,7.93
2023-11-22T12:08:19.811Z,9.40
2023-11-22T12:10:49.986Z,10.07
2023-11-22T12:13:21.209Z,8.43
2023-11-22T12:15:48.610Z,8.52
2023-11-22T12:18:15.193Z,7.13
2023-11-22T12:20:41.819Z,7.82
2023-11-22T12:23:09.670Z,7.68
2023-11-22T12:25:36.569Z,9.52
2023-11-22T12:28:03.420Z,7.75
2023-11-22T12:30:34.411Z,7.63
2023-11-22T12:33:11.074Z,9.40
2023-11-22T12:35:37.960Z,7.63
2023-11-22T12:38:07.798Z,10.15
2023-11-22T12:40:34.576Z,9.57
2023-11-22T12:43:02.139Z,7.65
2023-11-22T12:45:30.160Z,7.78
2023-11-22T12:48:00.112Z,7.60
2023-11-22T12:50:40.740Z,7.97
2023-11-22T12:53:13.845Z,8.35
2023-11-22T12:55:49.745Z,8.57
2023-11-22T12:58:20.747Z,7.22
2023-11-22T13:00:48.676Z,8.43
2023-11-22T13:03:15.775Z,8.32
2023-11-22T13:05:44.361Z,8.07
2023-11-22T13:08:14.619Z,8.63
2023-11-22T13:10:44.891Z,8.80
2023-11-22T13:13:11.579Z,7.88
2023-11-22T13:15:38.194Z,8.68
2023-11-22T13:18:07.515Z,10.63
2023-11-22T13:20:34.226Z,10.80
2023-11-22T13:23:01.229Z,10.05
2023-11-22T13:25:27.777Z,7.15
2023-11-22T13:27:54.331Z,8.38
2023-11-22T13:30:24.002Z,8.30
2023-11-22T13:32:51.255Z,8.85
2023-11-22T13:35:18.768Z,8.57
2023-11-22T13:37:46.612Z,7.45
2023-11-22T13:40:17.581Z,7.35
2023-11-22T13:42:49.282Z,9.48
2023-11-22T13:45:19.177Z,9.18
2023-11-22T13:47:48.012Z,8.80
2023-11-22T13:50:18.723Z,8.52
2023-11-22T13:52:55.201Z,8.77
2023-11-22T13:55:25.787Z,7.70
2023-11-22T13:57:55.981Z,8.50
2023-11-22T14:02:54.091Z,10.05
2023-11-22T14:05:20.636Z,7.97
2023-11-22T14:07:47.177Z,6.53
2023-11-22T14:10:17.301Z,8.48
2023-11-22T14:12:44.964Z,9.38
2023-11-22T14:15:14.840Z,9.65
2023-11-22T14:17:42.274Z,7.15
2023-11-22T14:20:13.732Z,9.68
2023-11-22T14:22:41.829Z,8.55
2023-11-22T14:25:12.344Z,8.70
2023-11-22T14:27:43.887Z,9.55
2023-11-22T14:30:14.876Z,8.95
2023-11-22T14:32:43.455Z,7.28
2023-11-22T14:35:10.855Z,7.57
2023-11-22T14:37:43.917Z,11.93
2023-11-22T14:40:14.688Z,6.50
2023-11-22T14:42:42.681Z,9.43
2023-11-22T14:45:10.282Z,9.32
2023-11-22T14:47:37.654Z,10.07
2023-11-22T14:50:08.299Z,7.82
2023-11-22T14:52:35.376Z,7.97
2023-11-22T14:55:02.150Z,9.90
2023-11-22T14:57:29.272Z,10.73
2023-11-22T14:59:57.609Z,11.52
2023-11-22T15:02:24.308Z,9.75
2023-11-22T15:04:50.826Z,6.85
2023-11-22T15:07:17.457Z,10.45
2023-11-22T15:09:45.033Z,11.35
2023-11-22T15:12:11.600Z,9.73
2023-11-22T15:14:38.234Z,9.77
2023-11-22T15:17:05.693Z,10.43
2023-11-22T15:19:33.192Z,8.75
2023-11-22T15:22:00.319Z,9.80
2023-11-22T15:24:31.491Z,10.50
2023-11-22T15:26:58.193Z,11.95
2023-11-22T15:29:24.781Z,13.30
2023-11-22T15:31:52.315Z,12.10
2023-11-22T15:34:19.144Z,12.88
2023-11-22T15:36:46.895Z,14.00
2023-11-22T15:39:16.506Z,12.20
2023-11-22T15:41:44.897Z,12.90
2023-11-22T15:44:13.795Z,12.85
2023-11-22T15:46:44.036Z,11.52
2023-11-22T15:51:38.019Z,12.95
2023-11-22T15:54:04.992Z,19.55
2023-11-22T15:56:32.192Z,15.10
2023-11-22T15:59:02.058Z,15.13
2023-11-22T16:01:29.763Z,12.05
2023-11-22T16:03:56.615Z,17.45
2023-11-22T16:06:24.150Z,10.75
2023-11-22T16:08:50.959Z,13.98
2023-11-22T16:11:17.630Z,11.10
2023-11-22T16:13:45.908Z,14.32
2023-11-22T16:16:12.956Z,15.02
2023-11-22T16:18:40.142Z,11.02
2023-11-22T16:21:08.568Z,14.00
2023-11-22T16:23:35.923Z,12.02
2023-11-22T16:26:05.714Z,12.32
2023-11-22T16:28:33.181Z,13.80
2023-11-22T16:31:00.946Z,14.70
2023-11-22T16:33:27.562Z,16.55
2023-11-22T16:35:55.426Z,13.77
2023-11-22T16:38:22.723Z,17.13
2023-11-22T16:40:54.039Z,14.38
2023-11-22T16:43:21.728Z,13.85
2023-11-22T16:45:50.465Z,14.35
2023-11-22T16:48:17.250Z,14.43
2023-11-22T16:50:44.617Z,15.30
2023-11-22T16:53:12.342Z,13.02
2023-11-22T16:55:39.806Z,17.85
2023-11-22T16:58:07.116Z,15.10
2023-11-22T17:00:34.041Z,15.20
2023-11-22T17:03:02.013Z,15.75
2023-11-22T17:05:31.965Z,15.23
2023-11-22T17:07:58.601Z,18.15
2023-11-22T17:10:44.975Z,13.43
2023-11-22T17:13:12.486Z,15.82
2023-11-22T17:15:41.152Z,15.77
2023-11-22T17:18:08.452Z,15.73
2023-11-22T17:20:35.308Z,17.73
2023-11-22T17:23:02.069Z,18.35
2023-11-22T17:25:28.602Z,16.83
2023-11-22T17:27:55.897Z,16.45
2023-11-22T17:30:25.508Z,16.95
2023-11-22T17:32:52.511Z,16.42
2023-11-22T17:35:19.140Z,16.48
2023-11-22T17:37:45.637Z,19.73
2023-11-22T17:40:14.963Z,16.67
2023-11-22T17:42:41.460Z,15.95
2023-11-22T17:45:08.575Z,17.08
2023-11-22T17:47:38.717Z,18.73
2023-11-22T17:50:06.574Z,19.13
2023-11-22T17:52:33.048Z,18.13
2023-11-22T17:55:00.024Z,15.52
2023-11-22T17:57:28.009Z,16.65
2023-11-22T17:59:54.671Z,20.52
2023-11-22T18:02:21.362Z,17.42
2023-11-22T18:04:47.875Z,17.35
2023-11-22T18:07:15.840Z,20.20
2023-11-22T18:09:42.803Z,16.35
2023-11-22T18:12:10.967Z,19.85
2023-11-22T18:14:37.564Z,16.52
2023-11-22T18:17:04.562Z,19.08
2023-11-22T18:19:31.319Z,18.00
2023-11-22T18:21:59.050Z,16.35
2023-11-22T18:24:28.202Z,16.23
2023-11-22T18:26:55.813Z,20.58
2023-11-22T18:29:24.561Z,16.67
2023-11-22T18:31:52.154Z,17.38
2023-11-22T18:34:19.103Z,16.15
2023-11-22T18:36:46.234Z,20.90
2023-11-22T18:39:13.982Z,17.52
2023-11-22T18:41:40.929Z,16.48
2023-11-22T18:44:08.350Z,16.98
2023-11-22T18:46:36.510Z,18.40
2023-11-22T18:49:03.167Z,17.42
2023-11-22T18:51:29.868Z,17.33
2023-11-22T18:53:56.501Z,19.00
2023-11-22T18:56:23.129Z,18.63
2023-11-22T18:58:50.169Z,18.70
2023-11-22T19:01:17.209Z,21.00
2023-11-22T19:03:43.915Z,20.95
2023-11-22T19:06:10.604Z,19.38
2023-11-22T19:08:38.357Z,32.65
2023-11-22T19:11:05.097Z,24.30
2023-11-22T19:13:33.241Z,20.33
2023-11-22T19:16:01.211Z,22.08
2023-11-22T19:18:28.913Z,24.38
2023-11-22T19:21:00.177Z,21.52
2023-11-22T19:23:27.852Z,24.90
2023-11-22T19:26:00.008Z,24.02
2023-11-22T19:28:31.409Z,22.35
2023-11-22T19:30:58.551Z,22.40
2023-11-22T19:33:25.789Z,22.65
2023-11-22T19:35:52.614Z,23.52
2023-11-22T19:38:21.580Z,24.60
2023-11-22T19:40:48.629Z,26.42
2023-11-22T19:43:16.842Z,22.50
2023-11-22T19:45:43.600Z,24.48
2023-11-22T19:48:10.345Z,20.95
2023-11-22T19:50:38.101Z,21.25
2023-11-22T19:53:04.861Z,24.95
2023-11-22T19:55:32.269Z,26.30
2023-11-22T19:58:00.465Z,23.20
2023-11-22T20:00:27.367Z,25.02
2023-11-22T20:02:54.537Z,20.13
2023-11-22T20:05:21.460Z,23.92
2023-11-22T20:07:48.231Z,23.20
2023-11-22T20:10:14.862Z,25.95
2023-11-22T20:12:42.671Z,22.60
2023-11-22T20:15:09.717Z,22.83
2023-11-22T20:17:36.445Z,22.92
2023-11-22T20:20:05.157Z,20.35
2023-11-22T20:22:31.969Z,19.65
2023-11-22T20:24:59.084Z,23.88
2023-11-22T20:27:26.009Z,20.15
2023-11-22T20:29:53.078Z,23.95
2023-11-22T20:32:20.174Z,22.90
2023-11-22T20:34:46.785Z,17.27
2023-11-22T20:37:13.346Z,20.73
2023-11-22T20:39:42.702Z,17.65
2023-11-22T20:42:09.524Z,16.23
2023-11-22T20:44:36.147Z,22.42
2023-11-22T20:47:02.963Z,19.27
2023-11-22T20:49:31.981Z,22.90
2023-11-22T20:51:59.095Z,20.90
2023-11-22T20:54:25.880Z,15.85
2023-11-22T20:56:52.538Z,18.38
2023-11-22T20:59:19.182Z,19.50
2023-11-22T21:01:45.898Z,22.30
2023-11-22T21:04:13.417Z,20.00
2023-11-22T21:06:43.026Z,21.58
2023-11-22T21:09:09.866Z,20.55
2023-11-22T21:11:43.055Z,17.15
2023-11-22T21:14:10.867Z,17.65
2023-11-22T21:16:47.027Z,18.52
2023-11-22T21:19:13.836Z,18.92
2023-11-22T21:21:40.781Z,19.50
2023-11-22T21:24:07.891Z,11.82
2023-11-22T21:26:34.598Z,16.95
2023-11-22T21:29:01.738Z,19.55
2023-11-22T21:31:28.354Z,19.30
2023-11-22T21:33:55.332Z,19.95
2023-11-22T21:36:23.125Z,15.88
2023-11-22T21:38:50.161Z,15.27
2023-11-22T21:41:16.837Z,15.25
2023-11-22T21:43:43.627Z,20.45
2023-11-22T21:46:17.604Z,14.90
2023-11-22T21:48:44.768Z,18.33
2023-11-22T21:51:11.661Z,14.60
2023-11-22T21:53:41.571Z,18.67
2023-11-22T21:56:09.259Z,16.15
2023-11-22T21:58:36.102Z,17.83
2023-11-22T22:01:02.942Z,16.63
2023-11-22T22:03:29.636Z,17.77
2023-11-22T22:05:56.554Z,14.82
2023-11-22T22:08:23.043Z,11.82
2023-11-22T22:10:49.888Z,15.10
2023-11-22T22:13:16.452Z,16.08
2023-11-22T22:15:42.936Z,19.00
2023-11-22T22:18:09.521Z,14.15
2023-11-22T22:20:43.332Z,17.50
2023-11-22T22:23:18.232Z,15.10
2023-11-22T22:25:44.714Z,16.20
2023-11-22T22:28:11.356Z,13.73
2023-11-22T22:30:38.793Z,13.50
2023-11-22T22:33:05.698Z,13.98
2023-11-22T22:35:32.281Z,12.30
2023-11-22T22:37:59.135Z,13.52
2023-11-22T22:40:25.960Z,14.60
2023-11-22T22:42:52.494Z,10.88
2023-11-22T22:45:19.074Z,12.25
2023-11-22T22:47:46.133Z,10.45
2023-11-22T22:50:13.029Z,11.43
2023-11-22T22:52:40.013Z,10.13
2023-11-22T22:55:08.342Z,8.32
2023-11-22T22:57:34.941Z,10.02
2023-11-22T23:00:01.554Z,10.55
2023-11-22T23:02:28.251Z,10.05
2023-11-22T23:04:54.850Z,9.95
2023-11-22T23:07:21.345Z,10.68
2023-11-22T23:09:47.945Z,7.72
2023-11-22T23:12:14.415Z,9.73
2023-11-22T23:14:40.923Z,10.15
2023-11-22T23:17:07.554Z,12.90
2023-11-22T23:19:36.028Z,9.48
2023-11-22T23:22:07.220Z,10.60
2023-11-22T23:24:34.384Z,9.73
2023-11-22T23:27:05.848Z,8.88
2023-11-22T23:29:33.892Z,10.77
2023-11-22T23:32:00.733Z,9.18
2023-11-22T23:34:27.520Z,8.02
2023-11-22T23:36:54.858Z,8.43
2023-11-22T23:39:21.919Z,6.72
2023-11-22T23:41:49.200Z,8.00
2023-11-22T23:44:15.748Z,9.07
2023-11-22T23:46:42.945Z,9.13
2023-11-22T23:49:09.761Z,7.30
2023-11-22T23:51:36.264Z,7.70
2023-11-22T23:54:02.879Z,7.80
2023-11-22T23:56:29.515Z,7.88
2023-11-22T23:58:56.092Z,7.47
